Bongor Airport

FTTB · Mayo-Kebbi Est, 乍得

METAR FTTB · Bongor Airport

12 七月 10:00 LT
1h
使用的METAR站距离机场124 km。
罗盘
风向 的 风向 230° Bongor Airport 9/27
风: 14 kt, 4 beaufort

11 kt

8 kt
改变
0 ft 1.000 2.000 3.000 4.000 5.000
Cloud Cloud
FEW 1.000
Cloud Cloud Cloud Cloud
SCT 1.300
Cloud Cloud Cloud Cloud
SCT 2.000
METAR FKKL 120900Z 23014KT 9999 -TSRA FEW010 SCT013 SCT020CB 24/22 Q1016

METAR Bongor Airport - FTTB/OGR

Bongor Airport是,乍得中的小机场。 该机场位于纬度10,28833和经度15,37942。 该机场有一条跑道: 9/27. 本场的ICAO机场代码为FTTB。 该机场的IATA代码为OGR。 机场在N Djamena FIR中。

该航空气象观测是针对Salak Airport在2024年7月12日 10:00, 当地时间进行的。

机场观察

风向为230°,速度为14 kt。

可见度为10 km 或者更多。

有几云在1.000 ft的高度, 疏云,零星散落的云朵在1.300 ft的高度 和 疏云,零星散落的云朵 积雨云在2.000 ft的高度。 没有观察到天花板。

当前天气为光 雷暴 雨。 温度和风寒是24 °C。 露点为22 °C,相对湿度为89%。 海平面上的气压为1016 hPa (QNH)。

白天

今天,太阳从05:43升起,在18:24降落。 这适用于Bongor Airport,世界夏令时可能有所不同。 当地时间与世界标准时间之间的时差为+1 小时。 夏令时目前正在进行中。

公司介绍

我们没有关于这个机场的公司信息。

体会

到Vliegles.nl去找飞行课程,跳伞和其他飞行体验。 浏览页面,了解Bongor Airport附近所有可用的活动。 你也可以使用搜索功能来寻找你所在地附近的特定飞行课程、跳伞或其他飞行体验。

跑道

Id 标题 侧风 逆风 侧风 %
9/27 087°-267° 8 kt 11 kt 60 %

逆风成分最大的方向会被突出显示,并用于横风计算。 这并不一定意味着这个方向在使用。

乌云

1.000 ft FEW 几云
1.300 ft SCT 疏云,零星散落的云朵
2.000 ft SCT 疏云,零星散落的云朵 积雨云

温度 & 天气

天气 光 雷暴 雨
温度 24 °C
露点 22 °C
相对湿度 89%
Kp-index 1 (0-9)

白天

日出
05:48
中午
12:08
日落
18:29 (6:41)

小工具

你想在你的网站上有一个关于Bongor Airport的当前航空天气(METAR)的小部件吗?

显示HTML代码
报告变更